This is the latest recevied weather packets stored in our database for station/object WA6OOO. If no packets are shown the sender has not sent any weather packets the latest 10 day(s).
| Time | Temp. | Humidity | Pressure | Rain* | Wind** | Luminosity | Snow |
|---|---|---|---|---|---|---|---|
| 1777303481 | 15° C | 63% | 1018.5 hPa | 0 mm | - | 275 W/m² | - |
| 1777303178 | 14.44° C | 67% | 1018.7 hPa | 0 mm | - | 247 W/m² | - |
| 1777302877 | 14.44° C | 64% | 1018.7 hPa | 0 mm | - | 79 W/m² | - |
| 1777302573 | 14.44° C | 64% | 1018.8 hPa | 0 mm | - | 82 W/m² | - |
| 1777302272 | 15° C | 67% | 1018.8 hPa | 0 mm | - | 58 W/m² | - |
| 1777301969 | 14.44° C | 69% | 1018.7 hPa | 0 mm | - | 57 W/m² | - |
| 1777301667 | 13.89° C | 71% | 1018.7 hPa | 0 mm | - | 58 W/m² | - |
| 1777301363 | 13.89° C | 70% | 1018.7 hPa | 0 mm | - | 112 W/m² | - |
| 1777301060 | 13.89° C | 70% | 1018.6 hPa | 0 mm | - | 143 W/m² | - |
| 1777300757 | 13.89° C | 70% | 1018.6 hPa | 0 mm | - | 137 W/m² | - |
| 1777300455 | 13.89° C | 70% | 1018.6 hPa | 0 mm | - | 127 W/m² | - |
| 1777300152 | 13.33° C | 72% | 1018.6 hPa | 0 mm | - | 114 W/m² | - |
| 1777299848 | 13.33° C | 74% | 1018.5 hPa | 0 mm | - | 102 W/m² | - |
| 1777299546 | 13.33° C | 73% | 1018.5 hPa | 0 mm | - | 91 W/m² | - |
| 1777299244 | 13.33° C | 74% | 1018.5 hPa | 0 mm | - | 81 W/m² | - |
| 1777298941 | 12.78° C | 76% | 1018.4 hPa | 0 mm | - | 72 W/m² | - |
| 1777298638 | 12.78° C | 76% | 1018.3 hPa | 0 mm | - | 63 W/m² | - |
| 1777298334 | 11.67° C | 80% | 1018.4 hPa | 0 mm | - | 54 W/m² | - |
| 1777298030 | 11.11° C | 83% | 1018.4 hPa | 0 mm | - | 44 W/m² | - |
| 1777297725 | 11.11° C | 82% | 1018.4 hPa | 0 mm | - | 32 W/m² | - |
| 1777297424 | 11.11° C | 83% | 1018.2 hPa | 0 mm | - | 25 W/m² | - |
| 1777297120 | 11.11° C | 83% | 1018.3 hPa | 0 mm | - | 21 W/m² | - |
| 1777296818 | 11.11° C | 83% | 1018.1 hPa | 0 mm | - | 17 W/m² | - |
| 1777296513 | 11.11° C | 83% | 1018.3 hPa | 0 mm | - | 12 W/m² | - |
| 1777296209 | 11.11° C | 83% | 1018.3 hPa | 0 mm | - | 9 W/m² | - |
* Rain latest hour (hover to see other rain measurements)
** Current wind speed in m/s (hover to see current wind gust speed)